Kipling, North Carolina
Current Conditions -  °F | °C
As of 2:35 PM on Thursday 30 Oct 2014 (Local Time) from KHRJ Reporting Station
Scattered Clouds Scattered Clouds  
Wind Chill: 68°   Ceiling: Unl
Heat Index: 68°   Visibility: 10mi
Dew Point: 41°   Wind: 5mph
Humidity: 38%   Direction: 10°N
Pressure: 29.98"   Gusts: NA
Location:  35.48°N, 78.82°W
Report Text: KHRJ 301835Z AUTO 01004KT 10SM SCT050 20/05 A2998 RMK AO2 T02000052
Loading
Personal Weather Stations






























Interactive Weather Map
Tropical Storm Tracking
New forecast layout! Learn more

10-Day Weather Forecast

Advertisements
Track Severe Weather on mobile